createdAt,value
2024-03-12T00:00:23.295Z,4.56
2024-03-12T00:05:47.270Z,4.58
2024-03-12T00:11:09.925Z,4.56
2024-03-12T00:16:35.141Z,4.57
2024-03-12T00:21:56.669Z,4.58
2024-03-12T00:27:20.540Z,4.59
2024-03-12T00:32:45.001Z,4.59
2024-03-12T00:38:08.106Z,4.59
2024-03-12T00:43:32.592Z,4.56
2024-03-12T00:48:55.221Z,4.56
2024-03-12T00:54:18.940Z,4.53
2024-03-12T00:59:42.712Z,4.54
2024-03-12T01:05:05.896Z,4.53
2024-03-12T01:10:29.558Z,4.51
2024-03-12T01:15:54.309Z,4.50
2024-03-12T01:21:16.892Z,4.47
2024-03-12T01:26:40.291Z,4.46
2024-03-12T01:32:05.427Z,4.45
2024-03-12T01:37:27.822Z,4.46
2024-03-12T01:42:53.141Z,4.44
2024-03-12T01:48:20.452Z,4.43
2024-03-12T01:53:43.718Z,4.44
2024-03-12T01:59:06.363Z,4.44
2024-03-12T02:04:28.782Z,4.43
2024-03-12T02:09:52.001Z,4.44
2024-03-12T02:15:15.546Z,4.44
2024-03-12T02:20:39.755Z,4.45
2024-03-12T02:26:02.349Z,4.46
2024-03-12T02:31:25.127Z,4.47
2024-03-12T02:36:48.079Z,4.46
2024-03-12T02:42:12.903Z,4.47
2024-03-12T02:47:35.710Z,4.49
2024-03-12T02:52:58.387Z,4.50
2024-03-12T02:58:23.162Z,4.52
2024-03-12T03:03:45.741Z,4.54
2024-03-12T03:09:08.227Z,4.55
2024-03-12T03:14:30.560Z,4.56
2024-03-12T03:19:53.527Z,4.57
2024-03-12T03:25:17.101Z,4.57
2024-03-12T03:30:39.634Z,4.59
2024-03-12T03:36:02.092Z,4.57
2024-03-12T03:41:25.039Z,4.59
2024-03-12T03:46:47.404Z,4.58
2024-03-12T03:52:09.862Z,4.59
2024-03-12T03:57:32.306Z,4.59
2024-03-12T04:02:56.121Z,4.62
2024-03-12T04:08:20.498Z,4.59
2024-03-12T04:13:42.882Z,4.62
2024-03-12T04:19:06.478Z,4.60
2024-03-12T04:24:29.380Z,4.62
2024-03-12T04:29:51.811Z,4.64
2024-03-12T04:35:14.767Z,4.64
2024-03-12T04:40:37.482Z,4.63
2024-03-12T04:46:00.483Z,4.64
2024-03-12T04:51:23.089Z,4.64
2024-03-12T04:56:46.192Z,4.66
2024-03-12T05:02:09.486Z,4.65
2024-03-12T05:07:31.809Z,4.65
2024-03-12T05:12:54.436Z,4.67
2024-03-12T05:18:16.889Z,4.69
2024-03-12T05:23:39.335Z,4.69
2024-03-12T05:29:03.009Z,4.69
2024-03-12T05:34:33.537Z,4.69
2024-03-12T05:40:13.900Z,4.71
2024-03-12T05:45:50.712Z,4.71
2024-03-12T05:51:13.132Z,4.74
2024-03-12T05:56:37.865Z,4.75
2024-03-12T06:02:00.406Z,4.79
2024-03-12T06:07:24.489Z,4.82
2024-03-12T06:12:47.137Z,4.83
2024-03-12T06:18:09.653Z,4.88
2024-03-12T06:23:33.119Z,4.94
2024-03-12T06:28:55.503Z,4.99
2024-03-12T06:34:17.932Z,5.03
2024-03-12T06:39:42.566Z,5.03
2024-03-12T06:45:07.363Z,5.08
2024-03-12T06:50:30.314Z,5.12
2024-03-12T06:55:54.344Z,5.17
2024-03-12T07:01:17.078Z,5.20
2024-03-12T07:06:45.593Z,5.18
2024-03-12T07:12:08.885Z,5.18
2024-03-12T07:17:32.812Z,5.21
2024-03-12T07:22:57.962Z,5.24
2024-03-12T07:28:24.823Z,5.27
2024-03-12T07:33:47.099Z,5.28
2024-03-12T07:39:14.846Z,5.27
2024-03-12T07:44:37.652Z,5.33
2024-03-12T07:50:01.628Z,5.43
2024-03-12T07:55:24.634Z,5.49
2024-03-12T08:00:47.716Z,5.47
2024-03-12T08:06:10.799Z,5.49
2024-03-12T08:11:35.246Z,5.54
2024-03-12T08:16:59.305Z,5.64
2024-03-12T08:22:23.884Z,5.75
2024-03-12T08:27:51.128Z,5.79
2024-03-12T08:33:24.081Z,5.89
2024-03-12T08:38:46.861Z,5.86
2024-03-12T08:44:09.700Z,5.81
2024-03-12T08:49:32.170Z,5.83
2024-03-12T08:54:54.678Z,5.86
2024-03-12T09:00:20.214Z,5.82
2024-03-12T09:05:43.603Z,5.77
2024-03-12T09:11:06.381Z,5.79
2024-03-12T09:16:28.886Z,5.89
2024-03-12T09:21:51.916Z,5.99
2024-03-12T09:27:14.456Z,5.92
2024-03-12T09:32:36.994Z,5.98
2024-03-12T09:37:59.691Z,6.11
2024-03-12T09:43:28.510Z,6.14
2024-03-12T09:48:53.008Z,6.17
2024-03-12T09:54:16.099Z,6.23
2024-03-12T09:59:40.342Z,6.39
2024-03-12T10:05:03.291Z,6.49
2024-03-12T10:10:28.138Z,6.22
2024-03-12T10:16:05.216Z,6.29
2024-03-12T10:21:30.726Z,6.38
2024-03-12T10:26:55.326Z,6.37
2024-03-12T10:32:31.864Z,6.53
2024-03-12T10:37:58.043Z,6.62
2024-03-12T10:43:21.323Z,6.42
2024-03-12T10:48:46.616Z,6.28
2024-03-12T10:54:11.882Z,6.24
2024-03-12T10:59:36.541Z,6.17
2024-03-12T11:04:59.411Z,6.31
2024-03-12T11:10:23.481Z,6.42
2024-03-12T11:15:47.256Z,6.62
2024-03-12T11:21:14.265Z,6.83
2024-03-12T11:26:43.140Z,7.00
2024-03-12T11:32:06.201Z,6.99
2024-03-12T11:37:35.001Z,7.03
2024-03-12T11:42:57.860Z,6.88
2024-03-12T11:48:23.411Z,7.03
2024-03-12T11:53:51.999Z,6.99
2024-03-12T11:59:20.107Z,7.06
2024-03-12T12:04:41.934Z,7.15
2024-03-12T12:15:46.164Z,7.35
2024-03-12T12:21:12.682Z,7.43
2024-03-12T12:26:40.340Z,7.41
2024-03-12T12:32:04.555Z,7.49
2024-03-12T12:37:29.654Z,7.52
2024-03-12T12:42:52.582Z,7.51
2024-03-12T12:48:15.831Z,7.65
2024-03-12T12:53:39.904Z,7.68
2024-03-12T12:59:03.628Z,7.70
2024-03-12T13:04:42.957Z,7.67
2024-03-12T13:10:07.252Z,7.88
2024-03-12T13:15:45.074Z,7.98
2024-03-12T13:21:09.155Z,7.96
2024-03-12T13:26:34.882Z,7.88
2024-03-12T13:31:57.551Z,7.92
2024-03-12T13:37:20.488Z,7.81
2024-03-12T13:42:43.929Z,7.80
2024-03-12T13:48:07.064Z,7.83
2024-03-12T13:53:30.844Z,7.77
2024-03-12T13:58:53.973Z,7.78
2024-03-12T14:04:17.045Z,7.88
2024-03-12T14:09:39.667Z,7.94
2024-03-12T14:15:03.209Z,7.97
2024-03-12T14:20:27.026Z,7.99
2024-03-12T14:25:51.153Z,7.98
2024-03-12T14:31:17.533Z,7.98
2024-03-12T14:36:41.633Z,7.83
2024-03-12T14:42:04.330Z,7.71
2024-03-12T14:47:26.944Z,7.75
2024-03-12T14:52:50.169Z,7.68
2024-03-12T14:58:13.710Z,7.65
2024-03-12T15:03:37.786Z,7.64
2024-03-12T15:09:00.451Z,7.57
2024-03-12T15:14:24.110Z,7.65
2024-03-12T15:19:47.008Z,7.62
2024-03-12T15:25:11.299Z,7.60
2024-03-12T15:30:35.286Z,7.44
2024-03-12T15:35:58.781Z,7.42
2024-03-12T15:41:21.484Z,7.43
2024-03-12T15:46:44.448Z,7.40
2024-03-12T15:52:08.638Z,7.34
2024-03-12T15:57:31.620Z,7.30
2024-03-12T16:02:56.051Z,7.20
2024-03-12T16:08:18.934Z,7.12
2024-03-12T16:13:42.259Z,7.08
2024-03-12T16:19:04.801Z,7.07
2024-03-12T16:24:30.298Z,7.00
2024-03-12T16:29:53.197Z,6.96
2024-03-12T16:35:17.073Z,6.89
2024-03-12T16:40:39.743Z,6.87
2024-03-12T16:46:02.749Z,6.81
2024-03-12T16:51:26.134Z,6.78
2024-03-12T16:56:49.102Z,6.76
2024-03-12T17:02:13.725Z,6.72
2024-03-12T17:07:38.693Z,6.68
2024-03-12T17:13:03.815Z,6.64
2024-03-12T17:18:27.230Z,6.61
2024-03-12T17:23:51.602Z,6.54
2024-03-12T17:29:14.402Z,6.53
2024-03-12T17:34:37.320Z,6.50
2024-03-12T17:40:02.213Z,6.46
2024-03-12T17:45:26.249Z,6.45
2024-03-12T17:50:48.917Z,6.45
2024-03-12T17:56:14.430Z,6.45
2024-03-12T18:01:37.429Z,6.45
2024-03-12T18:07:07.175Z,6.42
2024-03-12T18:12:30.505Z,6.41
2024-03-12T18:17:54.515Z,6.39
2024-03-12T18:23:17.664Z,6.34
2024-03-12T18:28:40.179Z,6.29
2024-03-12T18:34:07.516Z,6.29
2024-03-12T18:39:30.630Z,6.46
2024-03-12T18:44:54.261Z,6.38
2024-03-12T18:50:17.556Z,6.32
2024-03-12T18:55:40.719Z,6.26
2024-03-12T19:01:03.927Z,6.22
2024-03-12T19:06:30.297Z,6.18
2024-03-12T19:11:53.802Z,6.15
2024-03-12T19:17:18.839Z,6.13
2024-03-12T19:22:41.454Z,6.11
2024-03-12T19:28:09.488Z,6.07
2024-03-12T19:39:14.857Z,6.09
2024-03-12T19:44:37.829Z,5.89
2024-03-12T19:50:00.824Z,5.83
2024-03-12T19:55:29.418Z,5.82
2024-03-12T20:00:54.301Z,5.85
2024-03-12T20:06:17.703Z,5.89
2024-03-12T20:11:40.419Z,5.90
2024-03-12T20:17:02.928Z,5.86
2024-03-12T20:22:25.436Z,5.84
2024-03-12T20:27:50.752Z,5.81
2024-03-12T20:33:14.860Z,5.81
2024-03-12T20:38:37.308Z,5.81
2024-03-12T20:44:00.525Z,5.77
2024-03-12T20:49:24.564Z,5.81
2024-03-12T20:54:50.212Z,5.81
2024-03-12T21:00:20.950Z,5.84
2024-03-12T21:05:43.457Z,5.87
2024-03-12T21:11:06.251Z,5.91
2024-03-12T21:16:30.363Z,5.90
2024-03-12T21:22:01.273Z,5.88
2024-03-12T21:27:23.948Z,5.83
2024-03-12T21:32:46.399Z,5.80
2024-03-12T21:38:08.960Z,5.78
2024-03-12T21:43:31.389Z,5.78
2024-03-12T21:48:53.799Z,5.75
2024-03-12T21:54:16.933Z,5.72
2024-03-12T21:59:39.843Z,5.66
2024-03-12T22:05:02.205Z,5.52
2024-03-12T22:10:25.839Z,5.39
2024-03-12T22:15:48.901Z,5.28
2024-03-12T22:21:15.119Z,5.05
2024-03-12T22:26:37.458Z,4.86
2024-03-12T22:32:01.786Z,4.70
2024-03-12T22:37:24.323Z,4.54
2024-03-12T22:42:47.523Z,4.43
2024-03-12T22:48:10.185Z,4.31
2024-03-12T22:53:34.512Z,4.23
2024-03-12T22:58:57.743Z,4.21
2024-03-12T23:04:21.229Z,4.17
2024-03-12T23:09:44.821Z,4.20
2024-03-12T23:15:08.683Z,4.22
2024-03-12T23:20:32.199Z,4.22
2024-03-12T23:25:55.735Z,4.20
2024-03-12T23:31:18.649Z,4.14
2024-03-12T23:36:41.384Z,4.22
2024-03-12T23:42:03.822Z,4.17
2024-03-12T23:47:26.332Z,4.20
2024-03-12T23:52:50.209Z,4.25
2024-03-12T23:58:13.370Z,4.22
